sensor_id;sensor_type;location;lat;lon;timestamp;P1;durP1;ratioP1;P2;durP2;ratioP2
51020;SDS011;38907;45.562;8.856;2022-07-18T00:03:53;12.57;;;4.53;;
51020;SDS011;38907;45.562;8.856;2022-07-18T00:08:57;9.65;;;4.45;;
51020;SDS011;38907;45.562;8.856;2022-07-18T00:14:00;9.13;;;4.43;;
51020;SDS011;38907;45.562;8.856;2022-07-18T00:19:03;5.05;;;4.13;;
51020;SDS011;38907;45.562;8.856;2022-07-18T00:24:07;5.07;;;4.15;;
51020;SDS011;38907;45.562;8.856;2022-07-18T00:29:10;5.80;;;4.45;;
51020;SDS011;38907;45.562;8.856;2022-07-18T00:34:13;5.10;;;4.13;;
51020;SDS011;38907;45.562;8.856;2022-07-18T00:39:18;9.38;;;4.13;;
51020;SDS011;38907;45.562;8.856;2022-07-18T00:44:21;7.68;;;4.45;;
51020;SDS011;38907;45.562;8.856;2022-07-18T00:49:25;6.43;;;4.75;;
51020;SDS011;38907;45.562;8.856;2022-07-18T00:54:29;7.03;;;4.20;;
51020;SDS011;38907;45.562;8.856;2022-07-18T00:59:33;6.38;;;4.40;;
51020;SDS011;38907;45.562;8.856;2022-07-18T01:04:53;8.63;;;4.70;;
51020;SDS011;38907;45.562;8.856;2022-07-18T01:09:57;10.65;;;4.70;;
51020;SDS011;38907;45.562;8.856;2022-07-18T01:15:00;12.63;;;4.82;;
51020;SDS011;38907;45.562;8.856;2022-07-18T01:20:04;9.55;;;4.70;;
51020;SDS011;38907;45.562;8.856;2022-07-18T01:25:10;10.75;;;4.80;;
51020;SDS011;38907;45.562;8.856;2022-07-18T01:30:13;9.15;;;4.93;;
51020;SDS011;38907;45.562;8.856;2022-07-18T01:35:16;8.07;;;5.05;;
51020;SDS011;38907;45.562;8.856;2022-07-18T01:40:20;8.63;;;4.78;;
51020;SDS011;38907;45.562;8.856;2022-07-18T01:45:22;5.43;;;4.63;;
51020;SDS011;38907;45.562;8.856;2022-07-18T01:50:25;7.55;;;4.68;;
51020;SDS011;38907;45.562;8.856;2022-07-18T01:55:29;8.73;;;4.78;;
51020;SDS011;38907;45.562;8.856;2022-07-18T02:00:32;6.43;;;4.85;;
51020;SDS011;38907;45.562;8.856;2022-07-18T02:05:35;6.03;;;4.85;;
51020;SDS011;38907;45.562;8.856;2022-07-18T02:10:39;9.32;;;4.75;;
51020;SDS011;38907;45.562;8.856;2022-07-18T02:15:42;9.10;;;4.68;;
51020;SDS011;38907;45.562;8.856;2022-07-18T02:20:44;10.25;;;4.88;;
51020;SDS011;38907;45.562;8.856;2022-07-18T02:25:48;6.32;;;4.50;;
51020;SDS011;38907;45.562;8.856;2022-07-18T02:30:51;6.72;;;4.38;;
51020;SDS011;38907;45.562;8.856;2022-07-18T02:35:54;9.00;;;5.25;;
51020;SDS011;38907;45.562;8.856;2022-07-18T02:40:58;7.93;;;4.85;;
51020;SDS011;38907;45.562;8.856;2022-07-18T02:46:02;8.90;;;4.40;;
51020;SDS011;38907;45.562;8.856;2022-07-18T02:51:05;5.75;;;4.15;;
51020;SDS011;38907;45.562;8.856;2022-07-18T02:56:09;8.75;;;4.40;;
51020;SDS011;38907;45.562;8.856;2022-07-18T03:01:12;6.68;;;4.43;;
51020;SDS011;38907;45.562;8.856;2022-07-18T03:06:15;8.60;;;4.47;;
51020;SDS011;38907;45.562;8.856;2022-07-18T03:11:19;5.35;;;4.40;;
51020;SDS011;38907;45.562;8.856;2022-07-18T03:16:22;4.85;;;4.07;;
51020;SDS011;38907;45.562;8.856;2022-07-18T03:21:24;8.63;;;4.40;;
51020;SDS011;38907;45.562;8.856;2022-07-18T03:26:30;3.88;;;3.58;;
51020;SDS011;38907;45.562;8.856;2022-07-18T03:31:32;5.47;;;4.50;;
51020;SDS011;38907;45.562;8.856;2022-07-18T03:36:35;7.13;;;4.38;;
51020;SDS011;38907;45.562;8.856;2022-07-18T03:41:39;5.53;;;4.13;;
51020;SDS011;38907;45.562;8.856;2022-07-18T03:46:42;8.00;;;4.25;;
51020;SDS011;38907;45.562;8.856;2022-07-18T03:51:44;7.35;;;4.00;;
51020;SDS011;38907;45.562;8.856;2022-07-18T03:56:49;8.68;;;4.13;;
51020;SDS011;38907;45.562;8.856;2022-07-18T04:01:52;5.97;;;3.80;;
51020;SDS011;38907;45.562;8.856;2022-07-18T04:06:54;6.82;;;4.38;;
51020;SDS011;38907;45.562;8.856;2022-07-18T04:12:00;8.90;;;4.53;;
51020;SDS011;38907;45.562;8.856;2022-07-18T04:17:04;6.50;;;4.22;;
51020;SDS011;38907;45.562;8.856;2022-07-18T04:22:07;5.03;;;4.07;;
51020;SDS011;38907;45.562;8.856;2022-07-18T04:27:11;7.72;;;4.15;;
51020;SDS011;38907;45.562;8.856;2022-07-18T04:32:14;9.68;;;4.40;;
51020;SDS011;38907;45.562;8.856;2022-07-18T04:37:17;4.78;;;4.00;;
51020;SDS011;38907;45.562;8.856;2022-07-18T04:42:21;5.03;;;4.25;;
51020;SDS011;38907;45.562;8.856;2022-07-18T04:47:24;6.20;;;4.57;;
51020;SDS011;38907;45.562;8.856;2022-07-18T04:52:26;7.22;;;4.18;;
51020;SDS011;38907;45.562;8.856;2022-07-18T04:57:39;8.25;;;4.50;;
51020;SDS011;38907;45.562;8.856;2022-07-18T05:02:42;7.97;;;4.47;;
51020;SDS011;38907;45.562;8.856;2022-07-18T05:07:46;7.75;;;4.85;;
51020;SDS011;38907;45.562;8.856;2022-07-18T05:12:52;5.20;;;3.97;;
51020;SDS011;38907;45.562;8.856;2022-07-18T05:17:55;4.25;;;3.80;;
51020;SDS011;38907;45.562;8.856;2022-07-18T05:22:58;9.80;;;4.43;;
51020;SDS011;38907;45.562;8.856;2022-07-18T05:28:03;5.07;;;4.03;;
51020;SDS011;38907;45.562;8.856;2022-07-18T05:33:06;11.13;;;4.63;;
51020;SDS011;38907;45.562;8.856;2022-07-18T05:38:09;4.68;;;3.65;;
51020;SDS011;38907;45.562;8.856;2022-07-18T05:43:13;4.95;;;3.92;;
51020;SDS011;38907;45.562;8.856;2022-07-18T05:48:16;4.30;;;3.78;;
51020;SDS011;38907;45.562;8.856;2022-07-18T05:53:18;7.88;;;4.20;;
51020;SDS011;38907;45.562;8.856;2022-07-18T05:58:23;12.30;;;4.30;;
51020;SDS011;38907;45.562;8.856;2022-07-18T06:03:25;4.68;;;4.00;;
51020;SDS011;38907;45.562;8.856;2022-07-18T06:08:28;5.07;;;4.03;;
51020;SDS011;38907;45.562;8.856;2022-07-18T06:13:33;7.70;;;4.25;;
51020;SDS011;38907;45.562;8.856;2022-07-18T06:18:38;8.30;;;4.10;;
51020;SDS011;38907;45.562;8.856;2022-07-18T06:23:40;5.80;;;4.10;;
51020;SDS011;38907;45.562;8.856;2022-07-18T06:28:45;7.45;;;3.97;;
51020;SDS011;38907;45.562;8.856;2022-07-18T06:33:48;8.25;;;4.00;;
51020;SDS011;38907;45.562;8.856;2022-07-18T06:38:51;5.65;;;4.05;;
51020;SDS011;38907;45.562;8.856;2022-07-18T06:43:55;7.72;;;3.97;;
51020;SDS011;38907;45.562;8.856;2022-07-18T06:48:58;6.35;;;4.07;;
51020;SDS011;38907;45.562;8.856;2022-07-18T06:54:00;7.55;;;4.72;;
51020;SDS011;38907;45.562;8.856;2022-07-18T06:59:04;4.10;;;3.47;;
51020;SDS011;38907;45.562;8.856;2022-07-18T07:04:07;7.32;;;4.05;;
51020;SDS011;38907;45.562;8.856;2022-07-18T07:09:10;4.30;;;3.60;;
51020;SDS011;38907;45.562;8.856;2022-07-18T07:14:13;9.55;;;3.90;;
51020;SDS011;38907;45.562;8.856;2022-07-18T07:19:16;8.52;;;4.13;;
51020;SDS011;38907;45.562;8.856;2022-07-18T07:24:19;7.32;;;4.57;;
51020;SDS011;38907;45.562;8.856;2022-07-18T07:29:24;5.50;;;4.03;;
51020;SDS011;38907;45.562;8.856;2022-07-18T07:34:26;8.88;;;4.32;;
51020;SDS011;38907;45.562;8.856;2022-07-18T07:39:30;7.63;;;4.93;;
51020;SDS011;38907;45.562;8.856;2022-07-18T07:44:34;7.53;;;4.13;;
51020;SDS011;38907;45.562;8.856;2022-07-18T07:49:37;8.95;;;4.90;;
51020;SDS011;38907;45.562;8.856;2022-07-18T07:54:39;8.48;;;4.07;;
51020;SDS011;38907;45.562;8.856;2022-07-18T07:59:44;6.72;;;3.78;;
51020;SDS011;38907;45.562;8.856;2022-07-18T08:04:46;5.82;;;3.80;;
51020;SDS011;38907;45.562;8.856;2022-07-18T08:09:50;7.47;;;3.92;;
51020;SDS011;38907;45.562;8.856;2022-07-18T08:14:54;5.45;;;3.92;;
51020;SDS011;38907;45.562;8.856;2022-07-18T08:19:56;7.57;;;4.20;;
51020;SDS011;38907;45.562;8.856;2022-07-18T08:24:59;7.63;;;4.50;;
51020;SDS011;38907;45.562;8.856;2022-07-18T08:30:04;9.40;;;4.50;;
51020;SDS011;38907;45.562;8.856;2022-07-18T08:35:08;8.68;;;4.35;;
51020;SDS011;38907;45.562;8.856;2022-07-18T08:40:11;5.55;;;4.22;;
51020;SDS011;38907;45.562;8.856;2022-07-18T08:45:15;6.15;;;3.90;;
51020;SDS011;38907;45.562;8.856;2022-07-18T08:50:21;6.40;;;3.83;;
51020;SDS011;38907;45.562;8.856;2022-07-18T08:55:23;5.05;;;3.90;;
51020;SDS011;38907;45.562;8.856;2022-07-18T09:00:28;9.55;;;4.20;;
51020;SDS011;38907;45.562;8.856;2022-07-18T09:05:31;8.23;;;4.75;;
51020;SDS011;38907;45.562;8.856;2022-07-18T09:10:40;9.05;;;5.32;;
51020;SDS011;38907;45.562;8.856;2022-07-18T09:16:03;6.55;;;4.63;;
51020;SDS011;38907;45.562;8.856;2022-07-18T09:21:10;12.18;;;5.55;;
51020;SDS011;38907;45.562;8.856;2022-07-18T09:31:39;6.20;;;4.57;;
51020;SDS011;38907;45.562;8.856;2022-07-18T09:36:55;8.65;;;5.38;;
51020;SDS011;38907;45.562;8.856;2022-07-18T09:42:12;7.10;;;5.20;;
51020;SDS011;38907;45.562;8.856;2022-07-18T09:47:16;11.60;;;5.47;;
51020;SDS011;38907;45.562;8.856;2022-07-18T09:52:19;11.38;;;5.18;;
51020;SDS011;38907;45.562;8.856;2022-07-18T09:57:25;8.10;;;5.28;;
51020;SDS011;38907;45.562;8.856;2022-07-18T10:02:29;7.80;;;5.45;;
51020;SDS011;38907;45.562;8.856;2022-07-18T10:07:33;6.45;;;4.60;;
51020;SDS011;38907;45.562;8.856;2022-07-18T10:12:36;11.18;;;4.65;;
51020;SDS011;38907;45.562;8.856;2022-07-18T10:17:40;7.28;;;5.25;;
51020;SDS011;38907;45.562;8.856;2022-07-18T10:22:43;8.80;;;5.18;;
51020;SDS011;38907;45.562;8.856;2022-07-18T10:27:50;7.07;;;5.68;;
51020;SDS011;38907;45.562;8.856;2022-07-18T10:32:55;12.38;;;5.18;;
51020;SDS011;38907;45.562;8.856;2022-07-18T10:38:00;5.47;;;4.95;;
51020;SDS011;38907;45.562;8.856;2022-07-18T10:43:34;9.45;;;5.38;;
51020;SDS011;38907;45.562;8.856;2022-07-18T10:48:55;7.07;;;4.65;;
51020;SDS011;38907;45.562;8.856;2022-07-18T10:54:11;5.93;;;4.13;;
51020;SDS011;38907;45.562;8.856;2022-07-18T10:59:17;5.25;;;4.75;;
51020;SDS011;38907;45.562;8.856;2022-07-18T11:04:26;6.05;;;4.82;;
51020;SDS011;38907;45.562;8.856;2022-07-18T11:09:32;7.15;;;4.32;;
51020;SDS011;38907;45.562;8.856;2022-07-18T11:25:35;8.48;;;5.03;;
51020;SDS011;38907;45.562;8.856;2022-07-18T11:30:38;10.52;;;5.10;;
51020;SDS011;38907;45.562;8.856;2022-07-18T11:35:43;7.60;;;5.50;;
51020;SDS011;38907;45.562;8.856;2022-07-18T11:40:49;8.43;;;4.90;;
51020;SDS011;38907;45.562;8.856;2022-07-18T11:45:59;8.10;;;5.00;;
51020;SDS011;38907;45.562;8.856;2022-07-18T11:51:09;5.20;;;4.70;;
51020;SDS011;38907;45.562;8.856;2022-07-18T11:56:13;5.72;;;5.00;;
51020;SDS011;38907;45.562;8.856;2022-07-18T12:01:16;6.45;;;4.63;;
51020;SDS011;38907;45.562;8.856;2022-07-18T12:06:21;8.57;;;4.70;;
51020;SDS011;38907;45.562;8.856;2022-07-18T12:11:26;11.73;;;4.40;;
51020;SDS011;38907;45.562;8.856;2022-07-18T12:16:30;5.07;;;4.30;;
51020;SDS011;38907;45.562;8.856;2022-07-18T12:21:40;8.60;;;4.53;;
51020;SDS011;38907;45.562;8.856;2022-07-18T12:26:44;10.18;;;4.50;;
51020;SDS011;38907;45.562;8.856;2022-07-18T12:31:47;12.20;;;4.55;;
51020;SDS011;38907;45.562;8.856;2022-07-18T12:36:51;6.18;;;4.40;;
51020;SDS011;38907;45.562;8.856;2022-07-18T12:41:55;6.22;;;4.38;;
51020;SDS011;38907;45.562;8.856;2022-07-18T12:46:59;5.57;;;4.72;;
51020;SDS011;38907;45.562;8.856;2022-07-18T12:52:03;9.35;;;4.22;;
51020;SDS011;38907;45.562;8.856;2022-07-18T12:57:06;9.75;;;4.47;;
51020;SDS011;38907;45.562;8.856;2022-07-18T13:02:09;5.70;;;4.07;;
51020;SDS011;38907;45.562;8.856;2022-07-18T13:07:14;4.90;;;4.05;;
51020;SDS011;38907;45.562;8.856;2022-07-18T13:12:17;7.40;;;4.80;;
51020;SDS011;38907;45.562;8.856;2022-07-18T13:17:19;7.88;;;4.38;;
51020;SDS011;38907;45.562;8.856;2022-07-18T13:22:23;9.50;;;4.43;;
51020;SDS011;38907;45.562;8.856;2022-07-18T13:27:26;11.35;;;4.47;;
51020;SDS011;38907;45.562;8.856;2022-07-18T13:32:29;7.43;;;4.03;;
51020;SDS011;38907;45.562;8.856;2022-07-18T13:37:33;7.55;;;4.30;;
51020;SDS011;38907;45.562;8.856;2022-07-18T13:42:36;6.60;;;3.92;;
51020;SDS011;38907;45.562;8.856;2022-07-18T13:47:39;9.38;;;4.40;;
51020;SDS011;38907;45.562;8.856;2022-07-18T13:52:44;11.32;;;4.13;;
51020;SDS011;38907;45.562;8.856;2022-07-18T13:57:47;6.15;;;4.13;;
51020;SDS011;38907;45.562;8.856;2022-07-18T14:02:50;10.52;;;4.30;;
51020;SDS011;38907;45.562;8.856;2022-07-18T14:07:54;4.70;;;3.92;;
51020;SDS011;38907;45.562;8.856;2022-07-18T14:12:56;6.70;;;4.28;;
51020;SDS011;38907;45.562;8.856;2022-07-18T14:17:59;9.00;;;4.25;;
51020;SDS011;38907;45.562;8.856;2022-07-18T14:23:06;11.20;;;4.32;;
51020;SDS011;38907;45.562;8.856;2022-07-18T14:28:09;7.82;;;4.18;;
51020;SDS011;38907;45.562;8.856;2022-07-18T14:33:12;5.28;;;4.43;;
51020;SDS011;38907;45.562;8.856;2022-07-18T14:38:16;4.57;;;3.85;;
51020;SDS011;38907;45.562;8.856;2022-07-18T14:43:18;5.95;;;4.57;;
51020;SDS011;38907;45.562;8.856;2022-07-18T14:48:21;6.30;;;3.90;;
51020;SDS011;38907;45.562;8.856;2022-07-18T14:53:26;4.80;;;4.40;;
51020;SDS011;38907;45.562;8.856;2022-07-18T14:58:28;15.27;;;4.80;;
51020;SDS011;38907;45.562;8.856;2022-07-18T15:03:31;6.38;;;3.95;;
51020;SDS011;38907;45.562;8.856;2022-07-18T15:08:35;6.68;;;4.78;;
51020;SDS011;38907;45.562;8.856;2022-07-18T15:13:38;7.93;;;5.03;;
51020;SDS011;38907;45.562;8.856;2022-07-18T15:18:43;7.65;;;4.50;;
51020;SDS011;38907;45.562;8.856;2022-07-18T15:23:47;8.15;;;4.93;;
51020;SDS011;38907;45.562;8.856;2022-07-18T15:28:50;5.75;;;4.38;;
51020;SDS011;38907;45.562;8.856;2022-07-18T15:33:52;7.47;;;4.60;;
51020;SDS011;38907;45.562;8.856;2022-07-18T15:38:56;6.30;;;5.30;;
51020;SDS011;38907;45.562;8.856;2022-07-18T15:43:59;8.77;;;4.70;;
51020;SDS011;38907;45.562;8.856;2022-07-18T15:49:02;12.00;;;5.47;;
51020;SDS011;38907;45.562;8.856;2022-07-18T15:54:07;6.15;;;5.22;;
51020;SDS011;38907;45.562;8.856;2022-07-18T15:59:09;8.95;;;5.85;;
51020;SDS011;38907;45.562;8.856;2022-07-18T16:04:12;11.40;;;6.80;;
51020;SDS011;38907;45.562;8.856;2022-07-18T16:09:17;7.80;;;5.82;;
51020;SDS011;38907;45.562;8.856;2022-07-18T16:14:21;6.57;;;5.13;;
51020;SDS011;38907;45.562;8.856;2022-07-18T16:19:24;6.10;;;5.05;;
51020;SDS011;38907;45.562;8.856;2022-07-18T16:24:28;10.80;;;4.53;;
51020;SDS011;38907;45.562;8.856;2022-07-18T16:29:31;10.25;;;4.60;;
51020;SDS011;38907;45.562;8.856;2022-07-18T16:34:34;9.88;;;4.43;;
51020;SDS011;38907;45.562;8.856;2022-07-18T16:39:38;6.70;;;4.55;;
51020;SDS011;38907;45.562;8.856;2022-07-18T16:44:40;11.80;;;4.65;;
51020;SDS011;38907;45.562;8.856;2022-07-18T16:49:44;17.30;;;5.07;;
51020;SDS011;38907;45.562;8.856;2022-07-18T16:54:48;5.97;;;4.70;;
51020;SDS011;38907;45.562;8.856;2022-07-18T16:59:52;9.48;;;4.78;;
51020;SDS011;38907;45.562;8.856;2022-07-18T17:04:55;5.95;;;4.60;;
51020;SDS011;38907;45.562;8.856;2022-07-18T17:10:00;5.68;;;4.90;;
51020;SDS011;38907;45.562;8.856;2022-07-18T17:15:03;5.72;;;4.40;;
51020;SDS011;38907;45.562;8.856;2022-07-18T17:20:07;8.05;;;4.65;;
51020;SDS011;38907;45.562;8.856;2022-07-18T17:25:13;10.05;;;5.00;;
51020;SDS011;38907;45.562;8.856;2022-07-18T17:30:17;8.95;;;4.60;;
51020;SDS011;38907;45.562;8.856;2022-07-18T17:35:20;6.30;;;4.43;;
51020;SDS011;38907;45.562;8.856;2022-07-18T17:40:25;9.43;;;4.72;;
51020;SDS011;38907;45.562;8.856;2022-07-18T17:45:29;10.57;;;5.95;;
51020;SDS011;38907;45.562;8.856;2022-07-18T17:50:32;7.18;;;4.90;;
51020;SDS011;38907;45.562;8.856;2022-07-18T17:55:37;4.90;;;4.50;;
51020;SDS011;38907;45.562;8.856;2022-07-18T18:00:40;7.45;;;4.93;;
51020;SDS011;38907;45.562;8.856;2022-07-18T18:05:44;6.03;;;4.60;;
51020;SDS011;38907;45.562;8.856;2022-07-18T18:10:49;8.32;;;4.68;;
51020;SDS011;38907;45.562;8.856;2022-07-18T18:15:52;9.45;;;4.50;;
51020;SDS011;38907;45.562;8.856;2022-07-18T18:20:55;7.30;;;5.10;;
51020;SDS011;38907;45.562;8.856;2022-07-18T18:25:59;12.90;;;4.70;;
51020;SDS011;38907;45.562;8.856;2022-07-18T18:31:01;18.38;;;5.50;;
51020;SDS011;38907;45.562;8.856;2022-07-18T18:36:04;13.90;;;5.28;;
51020;SDS011;38907;45.562;8.856;2022-07-18T18:41:10;10.57;;;5.20;;
51020;SDS011;38907;45.562;8.856;2022-07-18T18:46:13;12.90;;;5.20;;
51020;SDS011;38907;45.562;8.856;2022-07-18T18:51:18;13.13;;;4.80;;
51020;SDS011;38907;45.562;8.856;2022-07-18T18:56:22;10.82;;;5.25;;
51020;SDS011;38907;45.562;8.856;2022-07-18T19:01:25;10.27;;;5.28;;
51020;SDS011;38907;45.562;8.856;2022-07-18T19:06:28;7.47;;;4.88;;
51020;SDS011;38907;45.562;8.856;2022-07-18T19:11:32;11.57;;;5.40;;
51020;SDS011;38907;45.562;8.856;2022-07-18T19:16:35;8.75;;;5.13;;
51020;SDS011;38907;45.562;8.856;2022-07-18T19:21:38;9.30;;;5.28;;
51020;SDS011;38907;45.562;8.856;2022-07-18T19:26:43;9.65;;;4.68;;
51020;SDS011;38907;45.562;8.856;2022-07-18T19:31:45;10.90;;;5.40;;
51020;SDS011;38907;45.562;8.856;2022-07-18T19:36:48;8.75;;;5.07;;
51020;SDS011;38907;45.562;8.856;2022-07-18T19:41:52;7.55;;;5.70;;
51020;SDS011;38907;45.562;8.856;2022-07-18T19:46:56;11.73;;;5.60;;
51020;SDS011;38907;45.562;8.856;2022-07-18T19:51:59;9.18;;;5.53;;
51020;SDS011;38907;45.562;8.856;2022-07-18T19:57:03;8.85;;;5.25;;
51020;SDS011;38907;45.562;8.856;2022-07-18T20:02:06;6.63;;;5.78;;
51020;SDS011;38907;45.562;8.856;2022-07-18T20:07:09;10.32;;;5.50;;
51020;SDS011;38907;45.562;8.856;2022-07-18T20:12:13;7.43;;;5.50;;
51020;SDS011;38907;45.562;8.856;2022-07-18T20:17:16;8.63;;;6.50;;
51020;SDS011;38907;45.562;8.856;2022-07-18T20:22:19;9.50;;;5.60;;
51020;SDS011;38907;45.562;8.856;2022-07-18T20:27:23;6.13;;;5.50;;
51020;SDS011;38907;45.562;8.856;2022-07-18T20:32:25;6.63;;;5.90;;
51020;SDS011;38907;45.562;8.856;2022-07-18T20:37:28;11.63;;;5.30;;
51020;SDS011;38907;45.562;8.856;2022-07-18T20:42:32;9.15;;;5.63;;
51020;SDS011;38907;45.562;8.856;2022-07-18T20:47:35;7.95;;;5.78;;
51020;SDS011;38907;45.562;8.856;2022-07-18T20:52:38;9.75;;;6.55;;
51020;SDS011;38907;45.562;8.856;2022-07-18T20:57:42;6.43;;;5.50;;
51020;SDS011;38907;45.562;8.856;2022-07-18T21:02:45;8.07;;;5.78;;
51020;SDS011;38907;45.562;8.856;2022-07-18T21:07:48;7.13;;;5.53;;
51020;SDS011;38907;45.562;8.856;2022-07-18T21:12:52;5.95;;;5.15;;
51020;SDS011;38907;45.562;8.856;2022-07-18T21:17:55;8.45;;;4.90;;
51020;SDS011;38907;45.562;8.856;2022-07-18T21:22:58;13.50;;;5.50;;
51020;SDS011;38907;45.562;8.856;2022-07-18T21:28:02;10.15;;;5.60;;
51020;SDS011;38907;45.562;8.856;2022-07-18T21:33:06;7.63;;;5.72;;
51020;SDS011;38907;45.562;8.856;2022-07-18T21:38:09;9.98;;;5.20;;
51020;SDS011;38907;45.562;8.856;2022-07-18T21:43:13;8.07;;;5.25;;
51020;SDS011;38907;45.562;8.856;2022-07-18T21:48:16;14.43;;;4.90;;
51020;SDS011;38907;45.562;8.856;2022-07-18T21:53:19;7.22;;;6.00;;
51020;SDS011;38907;45.562;8.856;2022-07-18T21:58:23;6.75;;;5.85;;
51020;SDS011;38907;45.562;8.856;2022-07-18T22:03:25;6.43;;;5.20;;
51020;SDS011;38907;45.562;8.856;2022-07-18T22:08:28;12.80;;;5.75;;
51020;SDS011;38907;45.562;8.856;2022-07-18T22:13:32;6.85;;;5.85;;
51020;SDS011;38907;45.562;8.856;2022-07-18T22:18:34;8.57;;;5.68;;
51020;SDS011;38907;45.562;8.856;2022-07-18T22:23:38;6.10;;;5.40;;
51020;SDS011;38907;45.562;8.856;2022-07-18T22:28:42;7.53;;;5.47;;
51020;SDS011;38907;45.562;8.856;2022-07-18T22:33:45;10.02;;;5.57;;
51020;SDS011;38907;45.562;8.856;2022-07-18T22:38:47;6.68;;;5.28;;
51020;SDS011;38907;45.562;8.856;2022-07-18T22:43:51;6.13;;;5.00;;
51020;SDS011;38907;45.562;8.856;2022-07-18T22:48:54;7.50;;;5.13;;
51020;SDS011;38907;45.562;8.856;2022-07-18T22:53:57;11.15;;;4.82;;
51020;SDS011;38907;45.562;8.856;2022-07-18T22:59:01;7.00;;;5.28;;
51020;SDS011;38907;45.562;8.856;2022-07-18T23:04:04;6.88;;;4.90;;
51020;SDS011;38907;45.562;8.856;2022-07-18T23:09:06;7.97;;;5.20;;
51020;SDS011;38907;45.562;8.856;2022-07-18T23:14:10;6.38;;;4.65;;
51020;SDS011;38907;45.562;8.856;2022-07-18T23:19:13;10.82;;;4.70;;
51020;SDS011;38907;45.562;8.856;2022-07-18T23:24:16;7.13;;;4.82;;
51020;SDS011;38907;45.562;8.856;2022-07-18T23:29:20;7.88;;;4.45;;
51020;SDS011;38907;45.562;8.856;2022-07-18T23:34:22;9.88;;;4.50;;
51020;SDS011;38907;45.562;8.856;2022-07-18T23:39:25;9.95;;;4.47;;
51020;SDS011;38907;45.562;8.856;2022-07-18T23:44:29;5.72;;;4.55;;
51020;SDS011;38907;45.562;8.856;2022-07-18T23:49:32;7.68;;;4.25;;
51020;SDS011;38907;45.562;8.856;2022-07-18T23:54:35;6.32;;;3.70;;
51020;SDS011;38907;45.562;8.856;2022-07-18T23:59:39;4.68;;;4.25;;
